Time;durP1;ratioP1;P1;durP2;ratioP2;P2;SDS_P1;SDS_P2;PMS_P1;PMS_P2;Temp;Humidity;BMP_temperature;BMP_pressure;BME280_temperature;BME280_humidity;BME280_pressure;Samples;Min_cycle;Max_cycle;Signal;HPM_P1;HPM_P2
2023/12/23 00:01:25;;;;;;;9.80;7.03;;;21.60;99.90;;;;;;4992691;28;20038;-51
2023/12/23 00:03:50;;;;;;;11.10;7.13;;;21.50;99.90;;;;;;5007954;28;20031;-51
2023/12/23 00:06:17;;;;;;;8.82;6.75;;;21.50;99.90;;;;;;4993103;28;20058;-52
2023/12/23 00:08:42;;;;;;;9.27;6.90;;;21.50;99.90;;;;;;4992657;28;20054;-51
2023/12/23 00:11:08;;;;;;;12.13;7.00;;;21.50;99.90;;;;;;4992766;28;20449;-50
2023/12/23 00:13:34;;;;;;;8.80;6.70;;;21.50;99.90;;;;;;4992762;28;20038;-52
2023/12/23 00:16:00;;;;;;;8.73;6.72;;;21.50;99.90;;;;;;4992743;28;20019;-51
2023/12/23 00:18:26;;;;;;;10.07;6.45;;;21.50;99.90;;;;;;4992808;28;20034;-51
2023/12/23 00:20:52;;;;;;;10.00;7.07;;;21.50;99.90;;;;;;4996663;28;20022;-51
2023/12/23 00:23:17;;;;;;;8.70;6.72;;;21.50;99.90;;;;;;4996878;28;20026;-52
2023/12/23 00:25:43;;;;;;;11.18;6.43;;;21.50;99.90;;;;;;4996474;28;20038;-51
2023/12/23 00:28:09;;;;;;;10.98;6.70;;;21.40;99.90;;;;;;4996576;28;20620;-51
2023/12/23 00:30:35;;;;;;;8.93;6.45;;;21.50;99.90;;;;;;4996632;28;20471;-52
2023/12/23 00:33:02;;;;;;;9.07;6.28;;;21.40;99.90;;;;;;4996607;28;20026;-49
2023/12/23 00:35:28;;;;;;;9.43;6.55;;;21.40;99.90;;;;;;4996561;28;20387;-49
2023/12/23 00:37:54;;;;;;;8.45;6.28;;;21.40;99.90;;;;;;4996403;28;20038;-49
2023/12/23 00:40:19;;;;;;;8.98;6.90;;;21.40;99.90;;;;;;4996606;28;20015;-50
2023/12/23 00:42:45;;;;;;;8.77;6.28;;;21.40;99.90;;;;;;5011814;28;20026;-49
2023/12/23 00:45:11;;;;;;;8.70;6.93;;;21.40;99.90;;;;;;4996309;28;20063;-49
2023/12/23 00:47:37;;;;;;;9.45;6.20;;;21.30;99.90;;;;;;4996207;28;20089;-49
2023/12/23 00:50:03;;;;;;;8.05;6.57;;;21.30;99.90;;;;;;4996148;28;20112;-49
2023/12/23 00:52:29;;;;;;;8.77;6.32;;;21.30;99.90;;;;;;4996018;28;20029;-50
2023/12/23 00:54:55;;;;;;;8.25;6.13;;;21.40;99.90;;;;;;4996127;28;20027;-50
2023/12/23 00:57:21;;;;;;;6.97;6.00;;;21.30;99.90;;;;;;4996342;28;20018;-50
2023/12/23 00:59:46;;;;;;;7.75;6.47;;;21.30;99.90;;;;;;4996178;28;20034;-50
2023/12/23 01:02:14;;;;;;;7.97;6.65;;;21.30;99.90;;;;;;5008279;23;20527;-54
2023/12/23 01:04:40;;;;;;;;;;;21.30;99.90;;;;;;4996424;28;20057;-53
2023/12/23 01:07:06;;;;;;;10.48;7.13;;;21.30;99.90;;;;;;4995778;28;19949;-53
2023/12/23 01:09:31;;;;;;;8.18;6.13;;;21.30;99.90;;;;;;4995880;28;20096;-53
2023/12/23 01:11:57;;;;;;;8.00;6.20;;;21.30;99.90;;;;;;4995891;28;20106;-52
2023/12/23 01:14:23;;;;;;;7.18;5.70;;;21.20;99.90;;;;;;4995844;28;20074;-53
2023/12/23 01:16:49;;;;;;;8.35;6.53;;;21.20;99.90;;;;;;4994734;28;20027;-53
2023/12/23 01:19:15;;;;;;;7.68;6.00;;;21.20;99.90;;;;;;4994624;28;20509;-53
2023/12/23 01:21:41;;;;;;;8.75;6.47;;;21.20;99.90;;;;;;4995476;28;20030;-53
2023/12/23 01:24:06;;;;;;;8.02;5.97;;;21.20;99.90;;;;;;4994634;28;20113;-53
2023/12/23 01:26:32;;;;;;;8.48;5.97;;;21.20;99.90;;;;;;4995572;28;20122;-54
2023/12/23 01:29:00;;;;;;;8.57;6.13;;;21.20;99.90;;;;;;4995571;28;20102;-53
2023/12/23 01:31:29;;;;;;;;;;;21.20;99.90;;;;;;4994036;28;20022;-53
2023/12/23 01:33:55;;;;;;;7.50;5.57;;;21.20;99.90;;;;;;4994155;28;20286;-53
2023/12/23 01:36:20;;;;;;;7.25;5.72;;;21.20;99.90;;;;;;4995590;28;20018;-53
2023/12/23 01:38:46;;;;;;;8.38;6.13;;;21.10;99.90;;;;;;4995383;28;20026;-53
2023/12/23 01:41:12;;;;;;;8.85;6.00;;;21.10;99.90;;;;;;4995599;28;20015;-53
2023/12/23 01:43:38;;;;;;;8.98;5.97;;;21.10;99.90;;;;;;4995323;28;20053;-54
2023/12/23 01:46:04;;;;;;;9.15;6.03;;;21.10;99.90;;;;;;4995224;28;20023;-54
2023/12/23 01:48:36;;;;;;;7.82;6.22;;;21.10;99.90;;;;;;4995177;28;20434;-51
2023/12/23 01:51:02;;;;;;;7.72;6.25;;;21.10;99.90;;;;;;4994901;28;20026;-52
2023/12/23 01:53:28;;;;;;;8.48;5.97;;;21.10;99.90;;;;;;4995056;28;20479;-52
2023/12/23 01:55:54;;;;;;;6.20;5.50;;;21.00;99.90;;;;;;4995211;28;20077;-52
2023/12/23 01:58:21;;;;;;;8.23;5.90;;;21.10;99.90;;;;;;4995221;28;20058;-54
2023/12/23 02:00:47;;;;;;;8.27;6.07;;;21.00;99.90;;;;;;4995345;28;20050;-54
2023/12/23 02:03:13;;;;;;;10.00;5.88;;;21.00;99.90;;;;;;4993711;28;20112;-51
2023/12/23 02:05:39;;;;;;;8.63;6.32;;;21.00;99.90;;;;;;4993529;28;20026;-54
2023/12/23 02:08:06;;;;;;;9.27;6.30;;;21.00;99.90;;;;;;4994842;28;20356;-54
2023/12/23 02:10:32;;;;;;;8.30;6.00;;;21.00;99.90;;;;;;4994760;28;20047;-54
2023/12/23 02:13:24;;;;;;;7.90;5.60;;;21.00;99.90;;;;;;4993556;28;20023;-54
2023/12/23 02:15:52;;;;;;;7.68;5.72;;;21.00;99.90;;;;;;4994898;28;20018;-53
2023/12/23 02:18:19;;;;;;;7.97;5.70;;;21.00;99.90;;;;;;4994624;28;20060;-53
2023/12/23 02:20:51;;;;;;;8.65;6.10;;;21.00;99.90;;;;;;4994549;28;20030;-53
2023/12/23 02:23:18;;;;;;;8.55;5.85;;;20.90;99.90;;;;;;4994533;28;20053;-54
2023/12/23 02:25:54;;;;;;;7.57;5.93;;;20.90;99.90;;;;;;4994509;28;20046;-53
2023/12/23 02:28:22;;;;;;;7.97;5.75;;;20.90;99.90;;;;;;4994260;28;20479;-54
2023/12/23 02:30:51;;;;;;;7.97;6.25;;;20.90;99.90;;;;;;4993157;28;20038;-53
2023/12/23 02:33:17;;;;;;;7.32;5.45;;;20.90;99.90;;;;;;4994370;28;20035;-53
2023/12/23 02:35:43;;;;;;;8.18;6.05;;;20.90;99.90;;;;;;4994321;28;20467;-54
2023/12/23 02:38:10;;;;;;;7.60;5.47;;;20.90;99.90;;;;;;4994292;28;20033;-53
2023/12/23 02:40:36;;;;;;;8.05;5.40;;;20.90;99.90;;;;;;4994228;28;20463;-53
2023/12/23 02:43:02;;;;;;;6.28;5.38;;;20.80;99.90;;;;;;4993221;28;20030;-51
2023/12/23 02:45:28;;;;;;;7.38;5.43;;;20.90;99.90;;;;;;4994066;28;20161;-51
2023/12/23 02:47:53;;;;;;;7.65;6.05;;;20.80;99.90;;;;;;4993920;28;20031;-52
2023/12/23 02:50:19;;;;;;;7.25;5.72;;;20.80;99.90;;;;;;4992694;28;20027;-51
2023/12/23 02:52:45;;;;;;;8.52;5.50;;;20.90;99.90;;;;;;4993990;28;20090;-52
2023/12/23 02:55:11;;;;;;;8.90;5.82;;;20.80;99.90;;;;;;4992810;28;20030;-52
2023/12/23 02:57:37;;;;;;;6.78;5.55;;;20.80;99.90;;;;;;4993739;28;20041;-52
2023/12/23 03:00:03;;;;;;;7.43;5.50;;;20.80;99.90;;;;;;4992655;28;20019;-52
2023/12/23 03:02:29;;;;;;;7.32;5.63;;;20.80;99.90;;;;;;5005693;23;20483;-52
2023/12/23 03:05:03;;;;;;;13.57;6.10;;;20.80;99.90;;;;;;5110297;27;20436;-51
2023/12/23 03:07:29;;;;;;;7.05;5.30;;;20.80;99.90;;;;;;5110172;28;20026;-51
2023/12/23 03:09:55;;;;;;;7.90;6.20;;;20.80;99.90;;;;;;5125652;28;20458;-50
2023/12/23 03:12:20;;;;;;;6.93;5.47;;;20.80;99.90;;;;;;5109990;28;20023;-50
2023/12/23 03:14:46;;;;;;;6.60;5.50;;;20.80;99.90;;;;;;5125656;28;20020;-50
2023/12/23 03:17:12;;;;;;;7.10;5.57;;;20.70;99.90;;;;;;5110102;28;20031;-50
2023/12/23 03:19:41;;;;;;;8.40;6.55;;;20.70;99.90;;;;;;5109790;28;20024;-50
2023/12/23 03:22:07;;;;;;;9.02;6.38;;;20.70;99.90;;;;;;5109718;28;20028;-50
2023/12/23 03:24:33;;;;;;;8.80;6.25;;;20.70;99.90;;;;;;5109589;28;20038;-50
2023/12/23 03:26:58;;;;;;;8.85;6.57;;;20.70;99.90;;;;;;5109651;28;20032;-50
2023/12/23 03:29:24;;;;;;;7.07;5.55;;;20.70;99.90;;;;;;5109591;28;20023;-50
2023/12/23 03:31:50;;;;;;;6.85;5.55;;;20.70;99.90;;;;;;5109571;28;20471;-50
2023/12/23 03:34:16;;;;;;;8.45;5.75;;;20.70;99.90;;;;;;5109643;28;20484;-50
2023/12/23 03:36:41;;;;;;;7.95;5.57;;;20.70;99.90;;;;;;5109743;28;20024;-50
2023/12/23 03:39:08;;;;;;;8.65;5.28;;;20.70;99.90;;;;;;5109407;28;20055;-50
2023/12/23 03:41:33;;;;;;;6.72;5.07;;;20.60;99.90;;;;;;5109351;28;20024;-50
2023/12/23 03:43:59;;;;;;;6.93;5.22;;;20.60;99.90;;;;;;5108239;28;20036;-50
2023/12/23 03:46:27;;;;;;;6.53;5.40;;;20.60;99.90;;;;;;5109347;28;20103;-50
2023/12/23 03:48:53;;;;;;;5.97;4.85;;;20.60;99.90;;;;;;5109455;28;20410;-50
2023/12/23 03:51:21;;;;;;;6.80;5.47;;;20.60;99.90;;;;;;5109163;28;20112;-50
2023/12/23 03:53:46;;;;;;;6.97;5.05;;;20.60;99.90;;;;;;5109291;28;20051;-50
2023/12/23 03:56:12;;;;;;;7.45;5.53;;;20.60;99.90;;;;;;5125104;28;20533;-50
2023/12/23 03:58:39;;;;;;;7.00;5.18;;;20.60;99.90;;;;;;5109153;28;20385;-50
2023/12/23 04:01:05;;;;;;;8.88;5.72;;;20.60;99.90;;;;;;5126113;22;20492;-53
2023/12/23 04:03:30;;;;;;;6.63;4.93;;;20.60;99.90;;;;;;5068368;28;20036;-53
2023/12/23 04:05:56;;;;;;;8.50;5.03;;;20.50;99.90;;;;;;5068461;28;20028;-54
2023/12/23 04:08:22;;;;;;;7.65;4.72;;;20.50;99.90;;;;;;5068259;28;20020;-53
2023/12/23 04:10:48;;;;;;;7.25;5.05;;;20.50;99.90;;;;;;5068431;28;20467;-54
2023/12/23 04:13:16;;;;;;;6.47;4.47;;;20.50;99.90;;;;;;5068563;28;20040;-53
2023/12/23 04:15:42;;;;;;;7.57;5.10;;;20.50;99.90;;;;;;5058810;28;20029;-53
2023/12/23 04:18:07;;;;;;;6.18;5.28;;;20.50;99.90;;;;;;5054967;28;20852;-54
2023/12/23 04:20:33;;;;;;;6.43;4.88;;;20.50;99.90;;;;;;5054999;28;20096;-53
2023/12/23 04:22:59;;;;;;;5.63;4.53;;;20.50;99.90;;;;;;5054747;28;20381;-52
2023/12/23 04:25:24;;;;;;;5.72;4.38;;;20.50;99.90;;;;;;5055059;28;20090;-53
2023/12/23 04:27:51;;;;;;;5.53;4.00;;;20.40;99.90;;;;;;5053419;28;20107;-53
2023/12/23 04:30:18;;;;;;;6.10;4.88;;;20.40;99.90;;;;;;5055076;28;20020;-53
2023/12/23 04:32:43;;;;;;;5.97;4.45;;;20.40;99.90;;;;;;5054825;28;20029;-53
2023/12/23 04:35:09;;;;;;;5.88;4.65;;;20.40;99.90;;;;;;5054698;28;20024;-53
2023/12/23 04:37:40;;;;;;;6.43;4.88;;;20.40;99.90;;;;;;5054610;28;20032;-53
2023/12/23 04:40:06;;;;;;;10.07;5.07;;;20.40;99.90;;;;;;5054552;28;20485;-53
2023/12/23 04:42:32;;;;;;;6.23;4.50;;;20.40;99.90;;;;;;5054707;28;20029;-53
2023/12/23 04:44:58;;;;;;;6.95;4.53;;;20.40;99.90;;;;;;5053074;28;20044;-53
2023/12/23 04:47:24;;;;;;;7.80;4.90;;;20.40;99.90;;;;;;5054513;28;20013;-53
2023/12/23 04:49:50;;;;;;;6.60;4.32;;;20.40;99.90;;;;;;5054464;28;20367;-53
2023/12/23 04:52:15;;;;;;;5.07;4.15;;;20.30;99.90;;;;;;5054497;28;20118;-53
2023/12/23 04:54:41;;;;;;;6.25;4.30;;;20.40;99.90;;;;;;5054390;28;20434;-53
2023/12/23 04:57:07;;;;;;;5.90;4.30;;;20.30;99.90;;;;;;5054182;28;20032;-53
2023/12/23 04:59:33;;;;;;;7.40;4.85;;;20.30;99.90;;;;;;5054096;28;20033;-53
2023/12/23 05:01:59;;;;;;;5.85;4.28;;;20.40;99.90;;;;;;5054216;28;20503;-53
2023/12/23 05:04:25;;;;;;;6.38;4.53;;;20.30;99.90;;;;;;5053837;28;20037;-53
2023/12/23 05:06:51;;;;;;;7.22;4.07;;;20.30;99.90;;;;;;5053968;28;20054;-53
2023/12/23 05:09:16;;;;;;;5.20;3.88;;;20.30;99.90;;;;;;5054209;28;20035;-53
2023/12/23 05:11:42;;;;;;;5.20;4.03;;;20.30;99.90;;;;;;5053885;28;20018;-53
2023/12/23 05:14:08;;;;;;;6.30;4.13;;;20.30;99.90;;;;;;5053918;28;20033;-53
2023/12/23 05:16:34;;;;;;;6.38;4.30;;;20.30;99.90;;;;;;5053916;28;20021;-53
2023/12/23 05:19:00;;;;;;;4.55;3.95;;;20.30;99.90;;;;;;5053851;28;20017;-53
2023/12/23 05:21:25;;;;;;;5.50;4.05;;;20.30;99.90;;;;;;5053783;28;20078;-53
2023/12/23 05:23:51;;;;;;;5.00;3.97;;;20.30;99.90;;;;;;5053931;28;20472;-53
2023/12/23 05:26:21;;;;;;;6.90;4.53;;;20.30;99.90;;;;;;5051881;28;20029;-53
2023/12/23 05:28:46;;;;;;;6.75;4.25;;;20.30;99.90;;;;;;5053548;28;20150;-53
2023/12/23 05:31:12;;;;;;;5.30;4.03;;;20.30;99.90;;;;;;5053543;28;20066;-53
2023/12/23 05:33:38;;;;;;;5.10;3.90;;;20.30;99.90;;;;;;5053452;28;20469;-53
2023/12/23 05:36:04;;;;;;;4.93;4.25;;;20.20;99.90;;;;;;5052201;28;20029;-53
2023/12/23 05:38:30;;;;;;;4.55;3.75;;;20.20;99.90;;;;;;5053400;28;20024;-53
2023/12/23 05:40:56;;;;;;;4.55;3.65;;;20.20;99.90;;;;;;5053537;28;20021;-54
2023/12/23 05:43:22;;;;;;;4.53;3.47;;;20.20;99.90;;;;;;5053487;28;20029;-54
2023/12/23 05:45:48;;;;;;;5.13;3.80;;;20.20;99.90;;;;;;5053480;28;20025;-54
2023/12/23 05:48:14;;;;;;;6.65;4.32;;;20.20;99.90;;;;;;5053192;28;20100;-54
2023/12/23 05:50:40;;;;;;;6.53;4.05;;;20.20;99.90;;;;;;5053180;28;20487;-54
2023/12/23 05:53:05;;;;;;;6.05;3.85;;;20.20;99.90;;;;;;5053171;28;20025;-54
2023/12/23 05:55:32;;;;;;;5.38;3.95;;;20.20;99.90;;;;;;5053294;28;20021;-54
2023/12/23 05:57:57;;;;;;;6.22;4.00;;;20.20;99.90;;;;;;5053175;28;20381;-54
2023/12/23 06:00:23;;;;;;;5.28;3.95;;;20.20;99.90;;;;;;5053247;28;20029;-54
2023/12/23 06:02:49;;;;;;;5.95;4.00;;;20.10;99.90;;;;;;5052984;28;20049;-54
2023/12/23 06:05:15;;;;;;;6.72;4.00;;;20.10;99.90;;;;;;5052927;28;20051;-54
2023/12/23 06:07:41;;;;;;;4.93;3.83;;;20.10;99.90;;;;;;5051589;28;20040;-54
2023/12/23 06:10:07;;;;;;;4.95;3.35;;;20.20;99.90;;;;;;5052852;28;20503;-55
2023/12/23 06:12:33;;;;;;;4.22;3.70;;;20.10;99.90;;;;;;5051600;28;20393;-54
2023/12/23 06:14:59;;;;;;;5.15;3.95;;;20.10;99.90;;;;;;5052874;28;20017;-54
2023/12/23 06:17:25;;;;;;;3.95;3.53;;;20.10;99.90;;;;;;5052701;28;20029;-54
2023/12/23 06:19:51;;;;;;;5.38;3.65;;;20.10;99.90;;;;;;5053106;28;20033;-54
2023/12/23 06:22:17;;;;;;;4.57;3.60;;;20.10;99.90;;;;;;5052706;28;20499;-54
2023/12/23 06:24:43;;;;;;;5.75;3.65;;;20.10;99.90;;;;;;5052569;28;20033;-54
2023/12/23 06:27:09;;;;;;;4.95;3.70;;;20.10;99.90;;;;;;5051434;28;20445;-54
2023/12/23 06:29:34;;;;;;;5.50;3.72;;;20.10;99.90;;;;;;5051282;28;20043;-54
2023/12/23 06:32:01;;;;;;;5.75;3.83;;;20.10;99.90;;;;;;5052460;28;20025;-53
2023/12/23 06:34:26;;;;;;;4.45;3.95;;;20.10;99.90;;;;;;5052530;28;20108;-54
2023/12/23 06:36:52;;;;;;;4.75;3.83;;;20.10;99.90;;;;;;5052590;28;20414;-54
2023/12/23 06:39:18;;;;;;;7.30;3.90;;;20.10;99.90;;;;;;5052087;28;20489;-54
2023/12/23 06:41:45;;;;;;;4.95;4.45;;;20.10;99.90;;;;;;5051066;28;20032;-54
2023/12/23 06:44:11;;;;;;;4.63;3.67;;;20.10;99.90;;;;;;5052235;28;20025;-54
2023/12/23 06:46:36;;;;;;;5.68;3.97;;;20.10;99.90;;;;;;5051026;28;20273;-55
2023/12/23 06:49:03;;;;;;;4.28;3.38;;;20.00;99.90;;;;;;5052418;28;20021;-54
2023/12/23 06:51:29;;;;;;;3.67;3.20;;;20.10;99.90;;;;;;5052193;28;20017;-55
2023/12/23 06:53:55;;;;;;;7.93;3.90;;;20.00;99.90;;;;;;5052425;28;20033;-54
2023/12/23 06:56:22;;;;;;;5.22;3.75;;;20.00;99.90;;;;;;5052216;28;20432;-56
2023/12/23 06:58:48;;;;;;;5.63;4.07;;;20.00;99.90;;;;;;5051995;28;20017;-54
2023/12/23 07:01:15;;;;;;;4.70;3.53;;;20.00;99.90;;;;;;5051885;28;20043;-54
2023/12/23 07:03:42;;;;;;;3.85;3.10;;;20.00;99.90;;;;;;5051945;28;20129;-54
2023/12/23 07:06:11;;;;;;;3.85;3.30;;;20.00;99.90;;;;;;5052101;28;20048;-54
2023/12/23 07:08:37;;;;;;;5.60;4.07;;;20.00;99.90;;;;;;5052059;28;20041;-54
2023/12/23 07:11:03;;;;;;;4.80;3.50;;;20.00;99.90;;;;;;5052116;28;20100;-54
2023/12/23 07:13:29;;;;;;;5.60;3.60;;;20.00;99.90;;;;;;5052084;28;20036;-54
2023/12/23 07:15:55;;;;;;;4.65;3.53;;;20.00;99.90;;;;;;5052047;28;20025;-54
2023/12/23 07:18:21;;;;;;;5.00;3.78;;;20.00;99.90;;;;;;5051961;28;20469;-54
2023/12/23 07:20:47;;;;;;;5.00;3.67;;;20.00;99.90;;;;;;5052023;28;20036;-54
2023/12/23 07:23:14;;;;;;;4.63;3.58;;;20.00;99.90;;;;;;5051882;28;20018;-54
2023/12/23 07:25:40;;;;;;;5.40;3.80;;;20.00;99.90;;;;;;5051881;28;20477;-54
2023/12/23 07:28:06;;;;;;;4.32;3.30;;;19.90;99.90;;;;;;5051875;28;20068;-54
2023/12/23 07:30:32;;;;;;;4.85;3.60;;;19.90;99.90;;;;;;5051912;28;20028;-54
2023/12/23 07:32:57;;;;;;;4.47;3.65;;;19.90;99.90;;;;;;5052211;28;20021;-54
2023/12/23 07:35:23;;;;;;;3.95;3.22;;;19.90;99.90;;;;;;5052281;28;20491;-55
2023/12/23 07:37:50;;;;;;;4.82;4.00;;;19.90;99.90;;;;;;5051870;28;20055;-54
2023/12/23 07:40:16;;;;;;;4.50;3.30;;;19.90;99.90;;;;;;5051880;28;20021;-54
2023/12/23 07:42:42;;;;;;;4.22;2.90;;;19.90;99.90;;;;;;5051718;28;20032;-54
2023/12/23 07:45:09;;;;;;;4.28;3.53;;;19.90;99.90;;;;;;5051611;28;20029;-54
2023/12/23 07:47:35;;;;;;;4.82;3.35;;;19.90;99.90;;;;;;5051753;28;20021;-53
2023/12/23 07:50:00;;;;;;;6.35;3.63;;;19.90;99.90;;;;;;5052490;28;20155;-53
2023/12/23 07:52:26;;;;;;;4.10;3.08;;;19.90;99.90;;;;;;5055778;28;20634;-55
2023/12/23 07:54:52;;;;;;;3.22;2.65;;;19.90;99.90;;;;;;5055447;28;20044;-53
2023/12/23 07:57:18;;;;;;;4.38;3.20;;;19.90;99.90;;;;;;5055430;28;20024;-54
2023/12/23 07:59:45;;;;;;;3.33;2.75;;;19.90;99.90;;;;;;5055228;28;20025;-53
2023/12/23 08:02:10;;;;;;;4.30;3.00;;;20.00;99.90;;;;;;5054982;28;20048;-53
2023/12/23 08:04:37;;;;;;;5.80;3.90;;;20.00;99.90;;;;;;5053900;28;20033;-53
2023/12/23 08:07:03;;;;;;;4.00;3.17;;;20.00;99.90;;;;;;5055236;28;20021;-56
2023/12/23 08:09:29;;;;;;;5.53;3.53;;;20.00;99.90;;;;;;5053945;28;20032;-53
2023/12/23 08:11:55;;;;;;;5.53;3.10;;;20.10;99.90;;;;;;5055245;28;20477;-54
2023/12/23 08:14:21;;;;;;;4.20;2.92;;;20.10;99.90;;;;;;5054988;28;20103;-53
2023/12/23 08:16:46;;;;;;;4.45;3.42;;;20.10;99.90;;;;;;5054867;28;20032;-53
2023/12/23 08:19:13;;;;;;;4.95;3.22;;;20.10;99.90;;;;;;5053518;28;20027;-53
2023/12/23 08:21:39;;;;;;;3.93;2.80;;;20.20;99.90;;;;;;5054845;28;20044;-53
2023/12/23 08:24:05;;;;;;;4.03;3.05;;;20.20;99.90;;;;;;5054720;28;20286;-53
2023/12/23 08:26:31;;;;;;;5.90;3.08;;;20.20;99.90;;;;;;5054916;28;20460;-53
2023/12/23 08:28:57;;;;;;;3.45;3.10;;;20.20;99.90;;;;;;5054955;28;20037;-54
2023/12/23 08:31:23;;;;;;;3.92;2.72;;;20.30;99.90;;;;;;5053434;28;20052;-55
2023/12/23 08:33:49;;;;;;;3.63;3.00;;;20.30;99.90;;;;;;5053360;28;20028;-54
2023/12/23 08:36:15;;;;;;;4.97;2.88;;;20.30;99.90;;;;;;5054652;28;20351;-54
2023/12/23 08:38:40;;;;;;;3.25;2.65;;;20.40;99.90;;;;;;5054477;28;20024;-54
2023/12/23 08:41:06;;;;;;;3.45;2.67;;;20.40;99.90;;;;;;5053076;28;20045;-54
2023/12/23 08:43:32;;;;;;;4.07;3.20;;;20.40;99.90;;;;;;5054450;28;20037;-54
2023/12/23 08:45:58;;;;;;;3.38;2.78;;;20.50;99.90;;;;;;5053251;28;20036;-54
2023/12/23 08:48:24;;;;;;;5.13;3.00;;;20.50;99.90;;;;;;5054300;28;20108;-54
2023/12/23 08:50:50;;;;;;;3.97;2.85;;;20.50;99.90;;;;;;5054293;28;20505;-54
2023/12/23 08:53:18;;;;;;;4.25;3.00;;;20.50;99.90;;;;;;5054314;28;20021;-54
2023/12/23 08:55:46;;;;;;;3.80;3.00;;;20.60;99.90;;;;;;5054285;28;20498;-54
2023/12/23 08:58:14;;;;;;;3.92;2.78;;;20.60;99.90;;;;;;5054185;28;20059;-54
2023/12/23 09:00:39;;;;;;;3.05;2.60;;;20.60;99.90;;;;;;5053927;28;20056;-53
2023/12/23 09:03:05;;;;;;;3.63;2.97;;;20.70;99.90;;;;;;5053822;28;20091;-53
2023/12/23 09:05:31;;;;;;;3.67;2.80;;;20.70;99.90;;;;;;5052878;28;20037;-54
2023/12/23 09:07:57;;;;;;;4.07;2.90;;;20.70;99.90;;;;;;5054045;28;20032;-52
2023/12/23 09:10:23;;;;;;;3.47;2.45;;;20.80;99.90;;;;;;5054406;28;20024;-52
2023/12/23 09:12:49;;;;;;;4.75;3.10;;;20.80;99.90;;;;;;5052315;28;20432;-53
2023/12/23 09:15:15;;;;;;;5.68;3.10;;;20.80;99.90;;;;;;5053871;28;20119;-54
2023/12/23 09:17:40;;;;;;;3.72;2.92;;;20.80;99.90;;;;;;5053726;28;20495;-53
2023/12/23 09:20:10;;;;;;;3.17;2.85;;;20.90;99.90;;;;;;5052474;28;20078;-54
2023/12/23 09:22:36;;;;;;;3.55;2.70;;;20.90;99.90;;;;;;5053748;28;20048;-54
2023/12/23 09:25:01;;;;;;;14.73;3.28;;;20.90;99.90;;;;;;5053934;28;20068;-54
2023/12/23 09:27:28;;;;;;;4.47;3.08;;;21.00;99.90;;;;;;5053686;28;20025;-52
2023/12/23 09:29:55;;;;;;;3.90;3.08;;;21.00;99.90;;;;;;5053852;28;20033;-53
2023/12/23 09:32:21;;;;;;;4.65;3.63;;;21.00;99.90;;;;;;5053493;28;20542;-54
2023/12/23 09:34:49;;;;;;;4.22;3.10;;;21.10;99.90;;;;;;5053562;28;20033;-54
2023/12/23 09:37:15;;;;;;;6.82;2.97;;;21.10;99.90;;;;;;5053357;28;20401;-54
2023/12/23 09:39:41;;;;;;;4.75;3.22;;;21.10;99.90;;;;;;5053303;28;20523;-53
2023/12/23 09:42:07;;;;;;;3.13;2.83;;;21.20;99.90;;;;;;5053449;28;20107;-54
2023/12/23 09:44:32;;;;;;;3.95;2.95;;;21.20;99.90;;;;;;5053330;28;20405;-53
2023/12/23 09:46:58;;;;;;;3.08;2.65;;;21.20;99.90;;;;;;5052021;28;20021;-53
2023/12/23 09:49:24;;;;;;;3.83;3.08;;;21.20;99.90;;;;;;5053273;28;20448;-54
2023/12/23 09:51:50;;;;;;;4.40;3.10;;;21.30;99.90;;;;;;5053171;28;20551;-53
2023/12/23 09:54:20;;;;;;;4.63;2.90;;;21.30;99.90;;;;;;5053078;28;20025;-54
2023/12/23 09:56:48;;;;;;;4.63;2.97;;;21.30;99.90;;;;;;5053259;28;20381;-54
2023/12/23 09:59:14;;;;;;;3.97;3.00;;;21.40;99.90;;;;;;5053225;28;20029;-54
2023/12/23 10:01:40;;;;;;;4.65;3.53;;;21.40;99.90;;;;;;5052712;28;20044;-53
2023/12/23 10:04:06;;;;;;;4.30;2.70;;;21.40;99.90;;;;;;5052949;28;20041;-54
2023/12/23 10:06:32;;;;;;;5.05;3.47;;;21.50;99.90;;;;;;5053083;28;20021;-53
2023/12/23 10:08:57;;;;;;;5.15;3.40;;;21.50;99.90;;;;;;5052763;28;20537;-54
2023/12/23 10:11:24;;;;;;;5.32;3.38;;;21.60;99.90;;;;;;5052839;28;20029;-54
2023/12/23 10:13:51;;;;;;;4.28;2.90;;;21.60;99.90;;;;;;5052308;28;20044;-54
2023/12/23 10:16:18;;;;;;;4.43;2.75;;;21.70;99.90;;;;;;5052663;28;20061;-54
2023/12/23 10:18:46;;;;;;;4.78;3.35;;;21.70;99.90;;;;;;5052741;28;20021;-54
2023/12/23 10:21:11;;;;;;;;;;;21.80;99.90;;;;;;5052990;28;20075;-53
2023/12/23 10:23:37;;;;;;;5.05;3.10;;;21.80;99.90;;;;;;5052566;28;20377;-54
2023/12/23 10:26:03;;;;;;;3.58;3.05;;;21.80;99.90;;;;;;5052830;28;20021;-55
2023/12/23 10:28:29;;;;;;;3.97;2.80;;;21.90;99.90;;;;;;5052395;28;20515;-54
2023/12/23 10:31:00;;;;;;;3.97;3.20;;;21.90;99.90;;;;;;5052565;28;20035;-55
2023/12/23 10:33:30;;;;;;;3.70;2.80;;;22.00;99.90;;;;;;5052487;28;20071;-53
2023/12/23 10:35:58;;;;;;;4.18;3.08;;;22.10;99.90;;;;;;5052387;28;20382;-53
2023/12/23 10:38:26;;;;;;;4.05;2.92;;;22.10;99.90;;;;;;5052455;28;20346;-56
2023/12/23 10:40:56;;;;;;;3.47;2.88;;;22.10;99.90;;;;;;5052396;28;20024;-54
2023/12/23 10:43:23;;;;;;;4.20;3.00;;;22.20;99.90;;;;;;5052152;28;20033;-53
2023/12/23 10:45:50;;;;;;;4.57;3.40;;;22.20;99.90;;;;;;5052128;28;20481;-56
2023/12/23 10:48:17;;;;;;;4.72;3.17;;;22.30;99.90;;;;;;5052035;28;20116;-55
2023/12/23 10:50:47;;;;;;;3.00;2.40;;;22.30;99.90;;;;;;5052241;28;20028;-54
2023/12/23 10:53:17;;;;;;;6.20;3.63;;;22.40;99.90;;;;;;5052349;28;20265;-55
2023/12/23 10:55:45;;;;;;;3.65;2.90;;;22.40;99.90;;;;;;5052220;28;20401;-54
2023/12/23 10:58:16;;;;;;;4.53;2.90;;;22.40;99.90;;;;;;5052213;28;20085;-54
2023/12/23 11:00:42;;;;;;;4.40;3.17;;;22.50;99.90;;;;;;5052186;28;20123;-54
2023/12/23 11:03:09;;;;;;;5.80;3.50;;;22.50;99.90;;;;;;5051863;28;20049;-54
2023/12/23 11:05:38;;;;;;;4.05;3.20;;;22.60;99.90;;;;;;5052182;28;20109;-54
2023/12/23 11:08:08;;;;;;;5.20;3.33;;;22.60;99.90;;;;;;5052260;28;20075;-54
2023/12/23 11:10:36;;;;;;;4.97;3.50;;;22.60;99.90;;;;;;5051961;28;20099;-54
2023/12/23 11:13:02;;;;;;;4.38;2.97;;;22.70;99.90;;;;;;5051852;28;20108;-54
2023/12/23 11:15:29;;;;;;;5.13;3.55;;;22.70;99.90;;;;;;5051898;28;20025;-56
2023/12/23 11:17:55;;;;;;;5.97;3.63;;;22.70;99.90;;;;;;5051920;28;20162;-53
2023/12/23 11:20:35;;;;;;;6.40;3.67;;;22.80;99.90;;;;;;5051918;28;20060;-53
2023/12/23 11:23:33;;;;;;;5.28;3.63;;;22.80;99.90;;;;;;5051958;28;20059;-53
2023/12/23 11:26:00;;;;;;;6.18;3.75;;;22.90;99.90;;;;;;5052340;28;20048;-54
2023/12/23 11:28:28;;;;;;;5.05;3.60;;;22.90;99.90;;;;;;5055998;28;20480;-54
2023/12/23 11:30:56;;;;;;;5.68;4.28;;;22.90;99.90;;;;;;5055844;28;20029;-54
2023/12/23 11:33:24;;;;;;;5.32;3.63;;;22.90;99.90;;;;;;5055831;28;20412;-55
2023/12/23 11:35:55;;;;;;;5.80;3.85;;;23.00;99.90;;;;;;5055792;28;20025;-54
2023/12/23 11:38:21;;;;;;;9.27;4.03;;;23.00;99.90;;;;;;5055635;28;20383;-54
2023/12/23 11:40:50;;;;;;;6.22;4.45;;;23.00;99.90;;;;;;5055680;28;20021;-54
2023/12/23 11:43:16;;;;;;;6.93;4.22;;;23.10;99.90;;;;;;5055428;28;20036;-54
2023/12/23 11:45:45;;;;;;;7.22;4.40;;;23.10;99.90;;;;;;5055633;28;20025;-55
2023/12/23 11:48:11;;;;;;;6.97;3.95;;;23.10;99.90;;;;;;5055713;28;20021;-54
2023/12/23 11:50:37;;;;;;;5.68;4.65;;;23.20;99.90;;;;;;5055646;28;20033;-55
2023/12/23 11:53:03;;;;;;;6.63;4.43;;;23.20;99.90;;;;;;5055341;28;20086;-54
2023/12/23 11:55:29;;;;;;;7.78;4.53;;;23.20;99.90;;;;;;5055399;28;20098;-54
2023/12/23 11:57:55;;;;;;;8.05;5.13;;;23.20;99.90;;;;;;5055442;28;20032;-54
2023/12/23 12:00:21;;;;;;;7.30;4.22;;;23.20;99.90;;;;;;5053942;28;20017;-54
2023/12/23 12:02:47;;;;;;;5.55;4.32;;;23.30;99.90;;;;;;5055022;28;20037;-54
2023/12/23 12:05:12;;;;;;;4.53;3.58;;;23.30;99.90;;;;;;5055093;28;20072;-55
2023/12/23 12:07:38;;;;;;;5.78;4.05;;;23.40;99.90;;;;;;5055157;28;20481;-55
2023/12/23 12:10:05;;;;;;;7.65;4.55;;;23.40;99.90;;;;;;5055264;28;20104;-54
2023/12/23 12:12:31;;;;;;;8.52;4.97;;;23.40;99.90;;;;;;5053857;28;20568;-53
2023/12/23 12:14:56;;;;;;;6.60;4.25;;;23.40;99.90;;;;;;5055116;28;20100;-54
2023/12/23 12:17:24;;;;;;;7.30;3.97;;;23.40;99.90;;;;;;5055081;28;20033;-55
2023/12/23 12:19:50;;;;;;;6.07;4.25;;;23.50;99.90;;;;;;5053618;28;20025;-53
2023/12/23 12:22:16;;;;;;;7.78;4.60;;;23.50;99.90;;;;;;5054817;28;20040;-53
2023/12/23 12:24:42;;;;;;;5.50;4.03;;;23.50;99.90;;;;;;5053705;28;20033;-53
2023/12/23 12:27:09;;;;;;;7.20;4.32;;;23.50;99.90;;;;;;5054540;28;20021;-53
2023/12/23 12:29:35;;;;;;;6.90;4.63;;;23.50;99.90;;;;;;5054727;28;20033;-53
2023/12/23 12:32:02;;;;;;;7.35;4.10;;;23.60;99.90;;;;;;5054650;28;20036;-54
2023/12/23 12:34:28;;;;;;;6.10;3.17;;;23.60;99.90;;;;;;5054497;28;20106;-54
2023/12/23 12:36:55;;;;;;;6.85;3.80;;;23.70;99.90;;;;;;5054194;28;20076;-54
2023/12/23 12:39:21;;;;;;;8.95;3.83;;;23.70;99.90;;;;;;5054474;28;20437;-53
2023/12/23 12:41:51;;;;;;;6.25;3.40;;;23.70;99.90;;;;;;5054442;28;20140;-54
2023/12/23 12:44:17;;;;;;;6.10;4.28;;;23.70;99.90;;;;;;5054367;28;20049;-54